Time;durP1;ratioP1;P1;durP2;ratioP2;P2;SDS_P1;SDS_P2;PMS_P1;PMS_P2;Temp;Humidity;BMP_temperature;BMP_pressure;BME280_temperature;BME280_humidity;BME280_pressure;Samples;Min_cycle;Max_cycle;Signal;HPM_P1;HPM_P2
2022/04/11 00:00:48;;;;;;;4.00;3.60;;;8.70;69.70;;;;;;4977308;28;20561;-86
2022/04/11 00:03:16;;;;;;;5.17;3.90;;;8.70;69.70;;;;;;4980244;28;20479;-84
2022/04/11 00:05:55;;;;;;;5.60;4.03;;;8.70;69.50;;;;;;4992301;28;20498;-83
2022/04/11 00:08:22;;;;;;;5.17;3.33;;;8.70;69.60;;;;;;4988629;28;20482;-87
2022/04/11 00:11:06;;;;;;;3.93;3.53;;;8.70;69.90;;;;;;4988392;28;20470;-85
2022/04/11 00:13:50;;;;;;;3.93;3.50;;;8.80;69.80;;;;;;4990841;28;20458;-85
2022/04/11 00:16:16;;;;;;;4.60;3.63;;;8.70;69.80;;;;;;5070356;23;20568;-87
2022/04/11 00:18:45;;;;;;;6.40;3.90;;;8.60;70.10;;;;;;5016906;28;20438;-85
2022/04/11 00:21:12;;;;;;;4.57;3.97;;;8.50;70.80;;;;;;5016409;28;20820;-85
2022/04/11 00:23:38;;;;;;;6.97;3.60;;;8.40;72.00;;;;;;5012262;28;20453;-84
2022/04/11 00:26:05;;;;;;;5.20;3.50;;;8.40;72.80;;;;;;5009567;28;20454;-84
2022/04/11 00:28:32;;;;;;;4.33;3.97;;;8.40;72.90;;;;;;5005125;28;20497;-86
2022/04/11 00:30:58;;;;;;;5.17;4.30;;;8.50;73.90;;;;;;5004067;28;20485;-85
2022/04/11 00:33:26;;;;;;;3.67;3.20;;;8.40;74.00;;;;;;5005007;28;21455;-85
2022/04/11 00:35:57;;;;;;;4.53;3.20;;;8.60;74.40;;;;;;5005335;28;20534;-87
2022/04/11 00:38:24;;;;;;;3.50;3.20;;;8.50;74.20;;;;;;5006893;28;20455;-86
2022/04/11 00:40:51;;;;;;;4.20;3.40;;;8.40;74.60;;;;;;5010251;28;20455;-84
2022/04/11 00:43:36;;;;;;;5.10;3.77;;;8.60;74.70;;;;;;5005339;28;20461;-85
2022/04/11 00:46:08;;;;;;;5.40;3.70;;;8.50;74.10;;;;;;5000415;28;20517;-84
2022/04/11 00:48:40;;;;;;;5.43;3.27;;;8.50;74.30;;;;;;4989486;28;20493;-85
2022/04/11 00:51:16;;;;;;;5.80;3.67;;;8.70;73.80;;;;;;5003655;28;20462;-85
2022/04/11 00:53:45;;;;;;;5.13;3.33;;;8.70;73.20;;;;;;5007543;28;20464;-83
2022/04/11 00:56:15;;;;;;;4.90;3.47;;;8.60;73.30;;;;;;5006498;28;20988;-85
2022/04/11 00:59:15;;;;;;;4.10;3.60;;;8.50;73.10;;;;;;5001893;28;20467;-84
2022/04/11 01:01:52;;;;;;;3.80;3.20;;;8.40;72.90;;;;;;5001819;28;20481;-84
2022/04/11 01:04:38;;;;;;;4.93;3.50;;;8.30;73.10;;;;;;5014835;28;20465;-85
2022/04/11 01:07:20;;;;;;;5.10;3.47;;;8.30;73.70;;;;;;4914287;29;20489;-84
2022/04/11 01:09:50;;;;;;;3.43;3.13;;;8.30;74.10;;;;;;4911747;29;20546;-85
2022/04/11 01:12:31;;;;;;;7.27;3.93;;;8.20;74.30;;;;;;4912267;29;20561;-87
2022/04/11 01:15:04;;;;;;;3.20;2.90;;;8.20;74.70;;;;;;4947229;23;21416;-86
2022/04/11 01:17:33;;;;;;;4.40;2.80;;;8.10;75.00;;;;;;5017914;28;20449;-87
2022/04/11 01:20:13;;;;;;;3.30;3.10;;;8.20;74.20;;;;;;5014593;28;20454;-83
2022/04/11 01:22:43;;;;;;;3.70;3.40;;;8.00;75.00;;;;;;5023398;28;20533;-85
2022/04/11 01:25:11;;;;;;;3.90;3.27;;;8.10;75.50;;;;;;5004939;28;21026;-85
2022/04/11 01:27:39;;;;;;;3.70;3.40;;;8.20;75.30;;;;;;5006787;28;20485;-83
2022/04/11 01:30:09;;;;;;;4.97;3.03;;;8.20;74.70;;;;;;5019915;28;20465;-84
2022/04/11 01:32:39;;;;;;;4.07;3.67;;;8.20;75.50;;;;;;5015721;28;20466;-85
2022/04/11 01:37:39;;;;;;;8.33;4.73;;;8.10;75.30;;;;;;5007206;28;20826;-86
2022/04/11 01:40:07;;;;;;;5.23;3.30;;;8.20;75.60;;;;;;5008047;28;20454;-85
2022/04/11 01:42:34;;;;;;;3.33;3.03;;;8.10;75.40;;;;;;5006971;28;20458;-84
2022/04/11 01:45:03;;;;;;;3.00;2.80;;;8.10;75.60;;;;;;5005756;28;20492;-85
2022/04/11 01:47:38;;;;;;;7.37;3.70;;;8.10;75.40;;;;;;4985436;28;20475;-85
2022/04/11 01:50:17;;;;;;;5.17;3.30;;;8.20;74.60;;;;;;4996423;28;20542;-85
2022/04/11 01:52:46;;;;;;;3.53;3.23;;;8.30;74.80;;;;;;4991769;28;20469;-85
2022/04/11 01:55:27;;;;;;;4.13;3.40;;;8.20;74.30;;;;;;5082956;23;20493;-86
2022/04/11 01:57:54;;;;;;;3.30;3.00;;;8.10;74.20;;;;;;5004054;28;20466;-84
2022/04/11 02:00:22;;;;;;;5.90;3.40;;;8.00;74.50;;;;;;4989758;28;20463;-83
2022/04/11 02:02:49;;;;;;;5.70;3.50;;;7.90;74.90;;;;;;4989459;28;20463;-84
2022/04/11 02:05:16;;;;;;;4.30;3.43;;;8.00;74.90;;;;;;5153779;23;20451;-86
2022/04/11 02:07:43;;;;;;;3.53;2.93;;;7.90;75.10;;;;;;4990868;28;20522;-84
2022/04/11 02:10:10;;;;;;;6.60;3.93;;;7.90;75.20;;;;;;4984041;28;20461;-86
2022/04/11 02:12:39;;;;;;;6.93;3.60;;;7.90;75.30;;;;;;4985034;28;20455;-85
2022/04/11 02:15:16;;;;;;;7.40;3.70;;;7.80;75.60;;;;;;5013861;23;20493;-84
2022/04/11 02:17:44;;;;;;;3.67;3.00;;;7.90;76.30;;;;;;5022549;28;20487;-84
2022/04/11 02:20:36;;;;;;;4.73;3.67;;;7.90;76.00;;;;;;5017062;28;20521;-85
2022/04/11 02:23:03;;;;;;;4.33;3.23;;;7.80;76.20;;;;;;5001049;28;20445;-83
2022/04/11 02:25:36;;;;;;;3.90;3.60;;;7.90;76.10;;;;;;5032133;22;20486;-85
2022/04/11 02:28:03;;;;;;;4.70;2.90;;;8.00;76.00;;;;;;4977456;28;20491;-84
2022/04/11 02:30:40;;;;;;;3.37;3.10;;;8.00;75.90;;;;;;4979514;28;20853;-85
2022/04/11 02:33:09;;;;;;;4.40;3.73;;;7.90;76.30;;;;;;4995363;28;20522;-85
2022/04/11 02:35:52;;;;;;;4.33;3.67;;;8.00;76.80;;;;;;4971662;28;20476;-86
2022/04/11 02:38:33;;;;;;;3.27;3.00;;;8.00;76.70;;;;;;4983391;28;20472;-88
2022/04/11 02:41:11;;;;;;;3.80;3.43;;;8.10;76.70;;;;;;4973583;28;20479;-86
2022/04/11 02:44:02;;;;;;;3.57;2.77;;;8.00;76.40;;;;;;4966959;28;20520;-84
2022/04/11 02:46:42;;;;;;;3.10;2.90;;;7.90;77.00;;;;;;4972193;28;21339;-86
2022/04/11 02:49:09;;;;;;;3.80;3.30;;;7.90;77.40;;;;;;4977755;28;20480;-86
2022/04/11 02:51:38;;;;;;;3.20;2.90;;;8.10;77.10;;;;;;4974401;28;20469;-85
2022/04/11 02:54:18;;;;;;;4.80;2.77;;;8.20;76.70;;;;;;4966103;28;20837;-86
2022/04/11 02:56:47;;;;;;;5.73;2.80;;;8.20;76.60;;;;;;4965319;28;20486;-86
2022/04/11 02:59:26;;;;;;;3.90;3.60;;;8.10;76.10;;;;;;4966324;28;20460;-86
2022/04/11 03:01:53;;;;;;;6.83;3.60;;;8.20;75.20;;;;;;4966811;28;20555;-85
2022/04/11 03:12:47;;;;;;;5.30;2.67;;;8.10;76.10;;;;;;5012683;28;20453;-85
2022/04/11 03:15:26;;;;;;;3.23;2.93;;;8.10;75.70;;;;;;5016567;28;20469;-87
2022/04/11 03:18:04;;;;;;;2.80;2.60;;;8.00;75.80;;;;;;5025342;28;20481;-84
2022/04/11 03:20:44;;;;;;;3.10;2.90;;;8.00;76.20;;;;;;5023218;28;20466;-86
2022/04/11 03:23:17;;;;;;;3.10;2.80;;;8.10;76.80;;;;;;5023398;28;20473;-88
2022/04/11 03:25:50;;;;;;;4.07;3.13;;;8.20;75.70;;;;;;5034555;28;20474;-87
2022/04/11 03:28:31;;;;;;;3.53;3.20;;;8.30;75.40;;;;;;5035861;28;20571;-87
2022/04/11 03:31:12;;;;;;;3.27;2.97;;;8.20;74.20;;;;;;5033989;28;20461;-85
2022/04/11 03:33:54;;;;;;;7.47;3.50;;;8.10;74.80;;;;;;5037358;28;20483;-86
2022/04/11 03:40:00;;;;;;;3.80;3.50;;;7.80;76.10;;;;;;5022979;28;20461;-85
2022/04/11 03:42:27;;;;;;;3.80;3.30;;;7.70;77.70;;;;;;5022677;28;20584;-86
2022/04/11 03:45:18;;;;;;;3.10;2.70;;;7.70;77.90;;;;;;5033121;28;20458;-86
2022/04/11 03:47:52;;;;;;;3.30;3.00;;;7.80;77.90;;;;;;5024185;28;20497;-84
2022/04/11 03:50:35;;;;;;;3.57;3.27;;;7.80;78.00;;;;;;5022888;28;20464;-86
2022/04/11 03:53:49;;;;;;;4.20;3.80;;;7.80;77.50;;;;;;5019363;28;20573;-84
2022/04/11 03:56:17;;;;;;;3.60;3.30;;;7.80;77.50;;;;;;5020924;28;20565;-84
2022/04/11 03:58:53;;;;;;;4.40;3.03;;;7.80;77.70;;;;;;5022059;28;20442;-83
2022/04/11 04:01:31;;;;;;;4.13;3.20;;;7.80;78.00;;;;;;5023216;28;20450;-84
2022/04/11 04:07:13;;;;;;;3.40;3.10;;;7.70;77.20;;;;;;5023451;28;20453;-86
2022/04/11 04:09:58;;;;;;;4.83;3.83;;;7.70;77.50;;;;;;5021790;28;20466;-85
2022/04/11 04:12:27;;;;;;;5.80;3.37;;;7.70;77.60;;;;;;5023695;28;20468;-86
2022/04/11 04:15:30;;;;;;;3.77;3.20;;;7.60;77.00;;;;;;5020987;28;20863;-85
2022/04/11 04:18:35;;;;;;;3.87;3.37;;;7.70;77.30;;;;;;5016545;28;20817;-85
2022/04/11 04:21:28;;;;;;;5.60;2.70;;;7.70;78.10;;;;;;5020769;28;20442;-83
2022/04/11 04:24:15;;;;;;;3.20;2.83;;;7.60;77.40;;;;;;5018257;28;20540;-84
2022/04/11 04:26:51;;;;;;;4.87;3.20;;;7.50;77.90;;;;;;5019686;28;20604;-84
2022/04/11 04:29:28;;;;;;;3.40;3.10;;;7.40;78.90;;;;;;5020998;28;20477;-85
2022/04/11 04:32:00;;;;;;;6.20;3.40;;;7.50;78.80;;;;;;5031991;28;20450;-87
2022/04/11 04:34:43;;;;;;;6.03;3.07;;;7.60;78.50;;;;;;5018749;28;20457;-84
2022/04/11 04:37:29;;;;;;;4.67;3.33;;;7.50;77.60;;;;;;5016876;28;20458;-84
2022/04/11 04:43:55;;;;;;;3.77;3.27;;;7.50;77.90;;;;;;5017788;28;20519;-83
2022/04/11 04:46:28;;;;;;;6.00;3.90;;;7.50;77.60;;;;;;5016051;28;20472;-84
2022/04/11 04:49:12;;;;;;;2.90;2.70;;;7.50;77.50;;;;;;5026473;28;21115;-83
2022/04/11 04:51:42;;;;;;;5.60;3.60;;;7.40;77.80;;;;;;5018445;28;20565;-86
2022/04/11 04:54:20;;;;;;;4.10;3.40;;;7.40;77.90;;;;;;5017657;28;20484;-84
2022/04/11 04:56:54;;;;;;;4.63;3.83;;;7.40;78.10;;;;;;5017303;28;20473;-85
2022/04/11 04:59:31;;;;;;;4.80;3.30;;;7.40;78.50;;;;;;5016938;28;20501;-83
2022/04/11 05:02:15;;;;;;;3.83;2.70;;;7.30;79.10;;;;;;5017782;28;20781;-85
2022/04/11 05:05:04;;;;;;;6.57;3.57;;;7.30;79.40;;;;;;5017211;28;20556;-83
2022/04/11 05:07:34;;;;;;;3.83;3.43;;;7.30;79.30;;;;;;5014487;28;21128;-83
2022/04/11 05:10:21;;;;;;;4.27;3.40;;;7.40;78.80;;;;;;5016890;28;20546;-84
2022/04/11 05:13:04;;;;;;;;;;;;;;;;;;;;;
2022/04/11 05:15:59;;;;;;;6.63;3.60;;;7.30;78.70;;;;;;5019769;28;20474;-84
2022/04/11 05:18:58;;;;;;;7.20;3.00;;;7.30;79.10;;;;;;5016939;28;20505;-84
2022/04/11 05:21:56;;;;;;;8.73;3.40;;;7.30;79.10;;;;;;5012321;28;20468;-84
2022/04/11 05:25:30;;;;;;;5.23;3.30;;;7.30;78.90;;;;;;5026219;28;20477;-87
2022/04/11 05:28:23;;;;;;;4.97;4.10;;;7.30;79.30;;;;;;5014984;28;20485;-84
2022/04/11 05:31:09;;;;;;;4.20;3.80;;;7.40;78.80;;;;;;5019264;28;20477;-84
2022/04/11 05:33:39;;;;;;;4.03;3.40;;;7.30;78.80;;;;;;5021852;28;20964;-85
2022/04/11 05:36:30;;;;;;;7.20;3.80;;;7.30;78.70;;;;;;5023809;28;20510;-83
2022/04/11 05:39:24;;;;;;;4.73;3.73;;;7.20;78.90;;;;;;4990450;28;20461;-84
2022/04/11 05:42:04;;;;;;;6.20;3.90;;;7.30;78.90;;;;;;5013980;28;20465;-84
2022/04/11 05:44:50;;;;;;;5.90;3.83;;;7.30;78.40;;;;;;5022478;28;20499;-85
2022/04/11 05:47:27;;;;;;;5.33;3.57;;;7.40;78.80;;;;;;5028121;28;20449;-85
2022/04/11 05:50:03;;;;;;;6.70;4.23;;;7.40;77.90;;;;;;5018032;28;20557;-84
2022/04/11 05:52:38;;;;;;;4.20;3.43;;;7.40;78.20;;;;;;5014391;28;20455;-83
2022/04/11 05:55:05;;;;;;;7.10;3.50;;;7.50;78.10;;;;;;5029980;28;20565;-85
2022/04/11 05:57:34;;;;;;;4.80;3.40;;;7.40;78.50;;;;;;5012533;28;20938;-84
2022/04/11 06:00:00;;;;;;;4.73;3.60;;;7.60;77.90;;;;;;5032525;28;20545;-85
2022/04/11 06:02:38;;;;;;;5.70;4.13;;;7.70;77.60;;;;;;5014444;28;20563;-85
2022/04/11 06:05:12;;;;;;;5.07;3.60;;;8.90;77.80;;;;;;5011835;28;20585;-86
2022/04/11 06:08:10;;;;;;;5.40;3.57;;;11.80;68.40;;;;;;5010582;28;20732;-84
2022/04/11 06:11:02;;;;;;;7.73;3.70;;;14.10;59.50;;;;;;5004376;28;20687;-85
2022/04/11 06:13:34;;;;;;;7.17;5.33;;;15.60;53.90;;;;;;5030531;28;20472;-84
2022/04/11 06:16:28;;;;;;;6.50;4.03;;;16.80;50.90;;;;;;5016085;28;20458;-86
2022/04/11 06:19:17;;;;;;;7.40;5.30;;;17.40;48.30;;;;;;5008290;28;20477;-84
2022/04/11 06:25:05;;;;;;;3.43;3.13;;;18.40;45.60;;;;;;5008920;28;20462;-85
2022/04/11 06:27:55;;;;;;;3.60;3.30;;;17.00;46.60;;;;;;5012435;28;20576;-86
2022/04/11 06:30:45;;;;;;;7.37;3.50;;;17.30;46.10;;;;;;5011628;28;20557;-84
2022/04/11 06:33:38;;;;;;;3.80;3.00;;;17.30;46.00;;;;;;4989023;28;20511;-85
2022/04/11 06:36:23;;;;;;;3.33;2.63;;;18.00;45.30;;;;;;5034226;28;20523;-85
2022/04/11 06:39:27;;;;;;;4.13;2.80;;;18.20;45.00;;;;;;5014869;28;20508;-84
2022/04/11 06:42:25;;;;;;;4.67;3.80;;;18.00;44.70;;;;;;5020479;28;21734;-84
2022/04/11 06:45:30;;;;;;;5.07;3.10;;;17.90;44.30;;;;;;5016885;28;20512;-86
2022/04/11 06:48:13;;;;;;;4.67;3.90;;;18.10;45.30;;;;;;5012583;28;20509;-84
2022/04/11 06:51:20;;;;;;;4.70;2.87;;;18.60;44.60;;;;;;5016609;28;20481;-84
2022/04/11 06:54:39;;;;;;;4.20;3.60;;;19.80;43.50;;;;;;5015554;28;20457;-86
2022/04/11 06:57:20;;;;;;;5.83;3.37;;;20.50;41.80;;;;;;5070265;23;20505;-85
2022/04/11 06:59:50;;;;;;;3.70;3.33;;;19.70;42.20;;;;;;5023143;28;20468;-83
2022/04/11 07:02:27;;;;;;;3.80;3.17;;;19.10;43.50;;;;;;5025629;28;20497;-87
2022/04/11 07:05:09;;;;;;;4.63;2.80;;;21.00;41.20;;;;;;5034436;28;21088;-85
2022/04/11 07:07:39;;;;;;;4.63;4.17;;;21.50;39.80;;;;;;5007653;28;20560;-84
2022/04/11 07:10:09;;;;;;;4.37;3.37;;;21.20;39.50;;;;;;4989873;28;20565;-83
2022/04/11 07:12:43;;;;;;;4.23;3.20;;;21.30;39.70;;;;;;5004475;28;20458;-85
2022/04/11 07:15:12;;;;;;;5.73;3.20;;;21.20;39.30;;;;;;5007577;28;20474;-85
2022/04/11 07:17:45;;;;;;;4.73;3.60;;;20.60;39.50;;;;;;5008566;28;20446;-86
2022/04/11 07:20:46;;;;;;;6.50;3.20;;;20.50;40.40;;;;;;5005819;28;20535;-86
2022/04/11 07:23:18;;;;;;;4.73;3.80;;;20.50;40.30;;;;;;5003105;28;22797;-84
2022/04/11 07:25:48;;;;;;;5.73;3.40;;;20.70;40.30;;;;;;5006021;28;20576;-83
2022/04/11 07:28:23;;;;;;;4.13;3.23;;;20.80;40.40;;;;;;5006001;28;20485;-83
2022/04/11 07:31:12;;;;;;;5.60;3.50;;;21.40;39.70;;;;;;5003414;28;20513;-84
2022/04/11 07:33:49;;;;;;;4.60;3.20;;;21.20;38.60;;;;;;5005610;28;20470;-87
2022/04/11 07:36:24;;;;;;;3.60;3.03;;;20.60;39.60;;;;;;5006621;28;20498;-84
2022/04/11 07:38:51;;;;;;;5.40;3.73;;;20.20;40.20;;;;;;5005631;28;20466;-84
2022/04/11 07:41:28;;;;;;;5.47;3.67;;;20.70;39.70;;;;;;5007199;28;20475;-85
2022/04/11 07:43:58;;;;;;;6.17;3.47;;;21.00;39.30;;;;;;5005982;28;20492;-86
2022/04/11 07:46:28;;;;;;;4.10;3.70;;;20.80;39.40;;;;;;5004333;28;20500;-83
2022/04/11 07:48:58;;;;;;;5.63;4.40;;;21.00;39.50;;;;;;5018940;28;20576;-86
2022/04/11 07:51:28;;;;;;;6.30;3.70;;;21.40;38.80;;;;;;5011166;28;20466;-85
2022/04/11 07:54:24;;;;;;;6.60;5.17;;;19.80;40.00;;;;;;5010408;28;20480;-85
2022/04/11 07:57:09;;;;;;;5.37;3.33;;;20.50;40.20;;;;;;5006902;28;20984;-86
2022/04/11 08:00:12;;;;;;;7.13;4.27;;;20.90;39.60;;;;;;5005694;28;20458;-84
2022/04/11 08:06:24;;;;;;;5.20;4.70;;;20.40;39.40;;;;;;5004068;28;20490;-86
2022/04/11 08:09:15;;;;;;;7.10;4.00;;;20.90;39.70;;;;;;5005463;28;20510;-86
2022/04/11 08:11:51;;;;;;;6.73;4.13;;;20.70;39.20;;;;;;5018492;28;20482;-86
2022/04/11 08:14:46;;;;;;;6.60;4.47;;;20.50;39.50;;;;;;5019969;28;20513;-84
2022/04/11 08:17:20;;;;;;;4.57;4.03;;;20.80;39.50;;;;;;5027573;28;20517;-86
2022/04/11 08:20:07;;;;;;;3.97;3.53;;;21.50;39.10;;;;;;5018374;28;20490;-83
2022/04/11 08:22:56;;;;;;;3.93;3.60;;;21.70;38.30;;;;;;5027110;28;20485;-83
2022/04/11 08:25:37;;;;;;;4.80;3.77;;;21.70;37.60;;;;;;5009724;28;20481;-84
2022/04/11 08:28:12;;;;;;;3.80;3.50;;;21.40;38.10;;;;;;5010054;28;20813;-88
2022/04/11 08:30:53;;;;;;;3.60;3.30;;;21.30;38.70;;;;;;5008799;28;20450;-84
2022/04/11 08:33:29;;;;;;;8.27;3.37;;;21.70;38.10;;;;;;5008351;28;20446;-86
2022/04/11 08:36:08;;;;;;;5.90;3.07;;;21.90;38.20;;;;;;5004440;28;20506;-85
2022/04/11 08:38:43;;;;;;;3.47;2.97;;;20.90;37.00;;;;;;5005563;28;20473;-85
2022/04/11 08:41:37;;;;;;;5.07;3.00;;;20.90;37.70;;;;;;5005262;28;20467;-87
2022/04/11 08:44:12;;;;;;;3.57;3.10;;;21.40;37.10;;;;;;5003898;28;20454;-86
2022/04/11 08:47:07;;;;;;;2.90;2.50;;;20.60;37.10;;;;;;5004116;28;20493;-85
2022/04/11 08:49:44;;;;;;;2.47;2.07;;;20.10;37.50;;;;;;5005272;28;20489;-87
2022/04/11 08:52:35;;;;;;;3.70;2.03;;;20.20;37.60;;;;;;5003482;28;20466;-84
2022/04/11 08:55:34;;;;;;;6.10;2.47;;;18.50;37.20;;;;;;4987427;28;20490;-88
2022/04/11 08:58:27;;;;;;;3.73;2.60;;;18.70;39.00;;;;;;5008927;28;20454;-86
2022/04/11 09:00:57;;;;;;;2.80;2.00;;;18.10;39.30;;;;;;4989715;28;20534;-86
2022/04/11 09:03:30;;;;;;;3.10;2.30;;;18.50;39.00;;;;;;5006740;28;20461;-86
2022/04/11 09:06:09;;;;;;;2.90;2.60;;;19.00;38.20;;;;;;5003343;28;20561;-87
2022/04/11 09:08:58;;;;;;;2.93;2.27;;;18.50;39.10;;;;;;5001938;28;20585;-86
2022/04/11 09:11:36;;;;;;;3.97;3.60;;;19.90;39.60;;;;;;5003723;28;20441;-84
2022/04/11 09:14:04;;;;;;;4.80;2.70;;;20.80;38.20;;;;;;5003167;28;20834;-86
2022/04/11 09:16:53;;;;;;;3.77;3.10;;;20.80;37.90;;;;;;5003014;28;20872;-83
2022/04/11 09:19:27;;;;;;;3.00;2.80;;;21.10;37.70;;;;;;5003638;28;21029;-85
2022/04/11 09:22:29;;;;;;;3.33;3.03;;;21.10;37.60;;;;;;5003602;28;20601;-84
2022/04/11 09:25:13;;;;;;;4.40;3.50;;;19.80;38.80;;;;;;5008560;28;20514;-86
2022/04/11 09:27:42;;;;;;;3.40;3.10;;;20.50;38.10;;;;;;5008236;28;20584;-85
2022/04/11 09:30:32;;;;;;;5.20;4.20;;;20.80;38.20;;;;;;5007921;28;20507;-87
2022/04/11 09:33:06;;;;;;;3.30;3.00;;;21.70;36.90;;;;;;5025012;28;20446;-87
2022/04/11 09:35:39;;;;;;;4.47;3.17;;;20.60;36.90;;;;;;5033996;28;20579;-88
2022/04/11 09:38:08;;;;;;;4.93;3.70;;;20.90;38.10;;;;;;5030168;28;20466;-87
2022/04/11 09:40:39;;;;;;;4.60;3.30;;;21.70;36.60;;;;;;5030752;28;20450;-87
2022/04/11 09:43:07;;;;;;;5.80;3.80;;;21.90;35.70;;;;;;5013026;28;20446;-86
2022/04/11 09:45:48;;;;;;;3.60;3.00;;;21.80;35.40;;;;;;5015748;28;20472;-86
2022/04/11 09:48:27;;;;;;;3.63;2.87;;;21.90;35.40;;;;;;5023325;28;20596;-84
2022/04/11 09:50:56;;;;;;;3.60;2.50;;;21.20;34.60;;;;;;5010682;28;20485;-84
2022/04/11 09:53:32;;;;;;;3.80;3.20;;;20.10;34.00;;;;;;5006261;28;20462;-85
2022/04/11 09:56:08;;;;;;;3.53;2.93;;;19.50;35.00;;;;;;5009411;28;20481;-84
2022/04/11 09:58:40;;;;;;;2.90;2.20;;;19.70;34.30;;;;;;5005639;28;20486;-85
2022/04/11 10:01:09;;;;;;;3.20;2.90;;;19.40;34.00;;;;;;5010040;28;20478;-85
2022/04/11 10:03:36;;;;;;;2.60;2.20;;;18.40;35.60;;;;;;5007249;28;20462;-85
2022/04/11 10:06:05;;;;;;;2.60;2.40;;;19.20;35.80;;;;;;5007392;28;20475;-85
2022/04/11 10:08:33;;;;;;;2.40;2.20;;;18.40;35.10;;;;;;5003476;28;20462;-84
2022/04/11 10:11:01;;;;;;;2.60;2.20;;;19.30;35.10;;;;;;5003873;28;20486;-86
2022/04/11 10:13:29;;;;;;;4.83;2.90;;;19.40;33.80;;;;;;5010754;28;20457;-86
2022/04/11 10:15:59;;;;;;;3.43;2.60;;;19.30;34.20;;;;;;5010662;28;20489;-86
2022/04/11 10:18:28;;;;;;;2.37;2.27;;;19.40;33.20;;;;;;5015231;28;20458;-86
2022/04/11 10:21:23;;;;;;;2.27;2.00;;;19.10;34.00;;;;;;5012692;28;20484;-86
2022/04/11 10:27:16;;;;;;;4.77;2.27;;;19.80;33.00;;;;;;5005321;28;22379;-84
2022/04/11 10:29:44;;;;;;;2.97;1.83;;;20.30;32.80;;;;;;5015742;28;20493;-87
2022/04/11 10:32:17;;;;;;;5.40;4.00;;;20.70;32.10;;;;;;5016230;28;20437;-86
2022/04/11 10:35:02;;;;;;;3.90;2.13;;;20.30;32.70;;;;;;5012375;28;20450;-87
2022/04/11 10:37:56;;;;;;;4.17;2.17;;;19.50;33.10;;;;;;5010208;28;20463;-85
2022/04/11 10:40:30;;;;;;;2.57;2.20;;;19.90;33.10;;;;;;5012796;28;20480;-84
2022/04/11 10:43:08;;;;;;;2.43;2.23;;;20.00;32.00;;;;;;5009326;28;20461;-84
2022/04/11 10:46:00;;;;;;;2.50;2.30;;;19.90;32.10;;;;;;5034186;22;20498;-85
2022/04/11 10:49:07;;;;;;;3.80;2.30;;;20.80;31.70;;;;;;5007903;28;20469;-87
2022/04/11 10:52:36;;;;;;;3.50;1.90;;;19.40;31.90;;;;;;4975045;28;20459;-85
2022/04/11 10:55:10;;;;;;;4.13;2.43;;;19.00;32.80;;;;;;4992782;28;20622;-84
2022/04/11 10:58:02;;;;;;;3.13;2.60;;;19.20;32.60;;;;;;4978724;28;20446;-87
2022/04/11 11:00:44;;;;;;;3.30;2.50;;;19.30;32.80;;;;;;4992589;28;20539;-86
2022/04/11 11:03:13;;;;;;;2.87;2.30;;;19.00;33.60;;;;;;4993415;28;20466;-85
2022/04/11 11:05:54;;;;;;;2.67;2.47;;;19.70;33.90;;;;;;4995910;28;20487;-87
2022/04/11 11:08:48;;;;;;;9.93;2.60;;;19.80;33.10;;;;;;4950600;28;20478;-85
2022/04/11 11:11:42;;;;;;;2.50;2.23;;;19.80;33.20;;;;;;4992314;28;20451;-85
2022/04/11 11:14:43;;;;;;;3.57;2.33;;;20.00;32.10;;;;;;4979617;28;20591;-84
2022/04/11 11:17:58;;;;;;;7.10;3.03;;;20.30;32.20;;;;;;4966750;28;20489;-84
2022/04/11 11:20:31;;;;;;;2.40;2.20;;;19.80;33.80;;;;;;4984586;28;20538;-85
2022/04/11 11:23:31;;;;;;;3.67;2.80;;;19.60;34.40;;;;;;4985866;28;20549;-85
2022/04/11 11:26:15;;;;;;;3.23;2.43;;;19.50;34.90;;;;;;5023793;22;20617;-86
2022/04/11 11:28:51;;;;;;;3.10;2.50;;;20.00;33.70;;;;;;5004901;28;20470;-86
2022/04/11 11:31:18;;;;;;;2.93;2.60;;;19.50;33.70;;;;;;5001549;28;20488;-84
2022/04/11 11:34:10;;;;;;;7.33;2.73;;;19.70;33.80;;;;;;5005711;28;20478;-84
2022/04/11 11:36:46;;;;;;;3.50;2.80;;;19.20;34.40;;;;;;5014375;28;20493;-87
2022/04/11 11:39:25;;;;;;;3.23;2.90;;;19.50;35.50;;;;;;5008979;28;20458;-84
2022/04/11 11:42:09;;;;;;;4.63;2.90;;;19.70;35.20;;;;;;4999618;28;20536;-86
2022/04/11 11:47:27;;;;;;;3.57;2.93;;;19.90;34.70;;;;;;5002670;28;20489;-83
2022/04/11 11:50:03;;;;;;;5.20;3.20;;;19.80;35.80;;;;;;5007917;28;20482;-84
2022/04/11 11:52:35;;;;;;;5.53;3.33;;;19.80;35.50;;;;;;4999392;28;20529;-84
2022/04/11 11:55:04;;;;;;;3.07;2.77;;;20.20;35.30;;;;;;4999280;28;20479;-86
2022/04/11 11:57:32;;;;;;;3.33;2.83;;;20.50;34.90;;;;;;4998130;28;20475;-84
2022/04/11 12:00:03;;;;;;;3.80;3.03;;;20.50;34.40;;;;;;4981771;28;20466;-84
2022/04/11 12:06:01;;;;;;;3.10;2.80;;;19.50;35.40;;;;;;4971121;28;20487;-86
2022/04/11 12:08:37;;;;;;;3.40;2.90;;;19.20;35.20;;;;;;4999200;28;20474;-85
2022/04/11 12:11:13;;;;;;;3.00;2.63;;;19.40;35.80;;;;;;4982313;28;21858;-86
2022/04/11 12:13:40;;;;;;;4.17;2.47;;;19.70;34.80;;;;;;4989687;28;20541;-85
2022/04/11 12:16:21;;;;;;;3.87;3.57;;;19.90;34.30;;;;;;4982291;28;20490;-85
2022/04/11 12:18:56;;;;;;;2.93;2.60;;;19.80;34.60;;;;;;4984545;28;20483;-85
2022/04/11 12:21:38;;;;;;;3.10;2.53;;;20.40;34.80;;;;;;4984629;28;20498;-86
2022/04/11 12:24:09;;;;;;;2.97;2.67;;;20.80;33.90;;;;;;4987219;28;20465;-84
2022/04/11 12:26:40;;;;;;;4.17;2.80;;;20.40;34.70;;;;;;4988329;28;20463;-87
2022/04/11 12:29:18;;;;;;;3.50;2.57;;;20.30;35.00;;;;;;4984480;28;20467;-84
2022/04/11 12:32:30;;;;;;;3.50;2.73;;;20.40;35.50;;;;;;4984054;28;20578;-83
2022/04/11 12:35:17;;;;;;;2.80;2.60;;;20.80;35.20;;;;;;4982746;28;20457;-86
2022/04/11 12:37:49;;;;;;;2.87;2.53;;;20.30;35.10;;;;;;5000537;28;20598;-84
2022/04/11 12:40:18;;;;;;;3.27;2.30;;;20.70;35.00;;;;;;4983217;28;20459;-86
2022/04/11 12:43:12;;;;;;;5.33;3.77;;;20.30;35.30;;;;;;4985642;28;20551;-85
2022/04/11 12:45:40;;;;;;;3.30;3.00;;;20.00;35.70;;;;;;4998594;28;20617;-84
2022/04/11 12:48:09;;;;;;;3.53;3.10;;;20.20;36.00;;;;;;4979563;28;20465;-85
2022/04/11 12:50:40;;;;;;;4.90;3.17;;;20.50;35.80;;;;;;4980810;28;20489;-85
2022/04/11 12:54:00;;;;;;;3.57;3.07;;;20.10;35.90;;;;;;4984350;28;20467;-85
2022/04/11 12:56:40;;;;;;;3.27;2.57;;;20.20;36.40;;;;;;4978566;28;20486;-84
2022/04/11 12:59:08;;;;;;;3.97;3.13;;;20.30;36.50;;;;;;4982829;28;21272;-86
2022/04/11 13:02:08;;;;;;;2.90;2.70;;;20.80;36.00;;;;;;4981610;28;20568;-87
2022/04/11 13:07:12;;;;;;;3.73;2.50;;;21.30;35.80;;;;;;5139295;23;20930;-86
2022/04/11 13:09:58;;;;;;;3.00;2.80;;;21.40;35.20;;;;;;5017893;28;21665;-86
2022/04/11 13:12:27;;;;;;;5.40;3.00;;;21.10;35.70;;;;;;5018153;28;20450;-86
2022/04/11 13:14:57;;;;;;;3.30;2.73;;;20.90;36.00;;;;;;5020103;28;20564;-86
2022/04/11 13:20:50;;;;;;;3.40;3.10;;;20.70;36.00;;;;;;5025455;28;20457;-87
2022/04/11 13:23:23;;;;;;;3.93;2.30;;;20.20;36.30;;;;;;5022832;28;20497;-85
2022/04/11 13:25:50;;;;;;;4.07;2.40;;;20.20;36.90;;;;;;5022534;28;20495;-84
2022/04/11 13:28:24;;;;;;;2.97;2.30;;;20.60;36.30;;;;;;5025284;28;20853;-86
2022/04/11 13:30:55;;;;;;;2.87;2.30;;;20.90;35.80;;;;;;5018983;28;21188;-84
2022/04/11 13:36:59;;;;;;;6.33;3.30;;;20.50;35.60;;;;;;5022979;28;20474;-85
2022/04/11 13:39:53;;;;;;;2.50;2.30;;;20.10;36.00;;;;;;5023142;28;20465;-85
2022/04/11 13:42:28;;;;;;;2.27;2.10;;;20.60;35.50;;;;;;5020733;28;20473;-84
2022/04/11 13:45:25;;;;;;;2.60;2.40;;;20.90;35.50;;;;;;5027028;28;20515;-86
2022/04/11 13:47:52;;;;;;;3.43;2.30;;;21.20;34.80;;;;;;5025642;28;20475;-84
2022/04/11 13:50:48;;;;;;;3.33;2.50;;;21.20;34.70;;;;;;5007188;28;20569;-85
2022/04/11 13:53:14;;;;;;;4.40;2.50;;;20.80;33.80;;;;;;5035250;28;20996;-85
2022/04/11 13:56:02;;;;;;;2.97;2.60;;;20.70;33.90;;;;;;5028396;28;20481;-83
2022/04/11 13:58:33;;;;;;;4.50;2.87;;;20.40;34.40;;;;;;5026460;28;20527;-85
2022/04/11 14:01:05;;;;;;;3.20;2.90;;;20.30;34.70;;;;;;5025788;28;20496;-88
2022/04/11 14:03:35;;;;;;;3.10;2.80;;;20.50;35.00;;;;;;5042932;28;20458;-85
2022/04/11 14:06:08;;;;;;;4.27;2.90;;;20.30;35.20;;;;;;5028881;28;20493;-84
2022/04/11 14:08:35;;;;;;;2.87;2.50;;;20.10;34.80;;;;;;5025853;28;20464;-83
2022/04/11 14:11:02;;;;;;;6.23;3.23;;;20.20;35.00;;;;;;5022827;28;20550;-86
2022/04/11 14:13:31;;;;;;;3.90;2.20;;;20.40;34.90;;;;;;5022264;28;20538;-84
2022/04/11 14:16:03;;;;;;;3.07;2.77;;;20.40;34.70;;;;;;5029411;28;20465;-84
2022/04/11 14:18:31;;;;;;;2.33;2.13;;;20.20;34.40;;;;;;5026909;28;20552;-85
2022/04/11 14:20:58;;;;;;;2.77;2.57;;;20.10;34.70;;;;;;5025017;28;20529;-87
2022/04/11 14:23:27;;;;;;;3.47;2.70;;;20.70;34.10;;;;;;5026894;28;20463;-84
2022/04/11 14:26:02;;;;;;;2.77;2.40;;;20.60;34.40;;;;;;5023012;28;20489;-87
2022/04/11 14:28:29;;;;;;;3.80;2.30;;;20.70;33.50;;;;;;5025212;28;20457;-82
2022/04/11 14:30:58;;;;;;;3.40;2.27;;;20.40;33.60;;;;;;5022869;28;20489;-85
2022/04/11 14:33:27;;;;;;;3.77;2.53;;;20.30;34.60;;;;;;5026146;28;20520;-84
2022/04/11 14:35:54;;;;;;;2.50;2.27;;;20.50;34.70;;;;;;5022663;28;20620;-85
2022/04/11 14:38:21;;;;;;;2.17;1.97;;;20.70;32.70;;;;;;5024029;28;20476;-84